Latest Weather Observations for Coffs Harbour

IDN60801

Issued at 6:35 am EDT Wednesday 22 October 2014 (issued every 30 minutes, with the page automatically refreshed every 10 minutes)

About weather observations | Map of weather stations | Latest weather observations for NSW | Other Formats
Station Details ID: 059040 Name: COFFS HARBOUR MO Lat: -30.31 Lon: 153.12 Height: 5.0 m
Data from the previous 72 hours. | See also: Recent months at Coffs Harbour
Date/Time
EDT
Temp
°C
App
Temp
°C
Dew
Point
Rel
Hum
%
Delta-T
°C
Wind Press
QNH
hPa
Press
MSL
hPa
Rain
since 9 am
mm
Dir
 
Spd
km/h
Gust
km/h
Spd
kts
Gust
kts
22/06:30am 13.6 11.9 12.5 93 0.6 W 13 19 7 10 1026.8 - 2.2
22/06:00am 13.2 11.5 12.3 94 0.5 WSW 13 17 7 9 1026.7 1026.8 2.2
22/05:30am 13.0 11.6 12.1 94 0.5 SSW 11 13 6 7 1026.6 - 2.2
22/05:00am 13.3 12.3 12.2 93 0.6 WSW 9 13 5 7 1026.5 - 2.2
22/04:30am 13.8 11.3 12.3 91 0.8 W 17 26 9 14 1026.6 - 2.2
22/04:00am 13.7 10.8 12.4 92 0.7 WSW 19 26 10 14 1027.0 - 2.2
22/03:30am 13.6 11.5 12.5 93 0.6 WSW 15 22 8 12 1027.3 - 2.2
22/03:00am 13.9 11.6 13.0 94 0.5 W 17 20 9 11 1027.4 1027.5 2.2
22/02:30am 14.0 11.7 12.9 93 0.6 WSW 17 24 9 13 1027.9 - 2.2
22/02:05am 14.2 11.9 13.1 93 0.6 WSW 17 26 9 14 1028.2 - 2.2
22/02:00am 14.2 11.9 12.9 92 0.7 WSW 17 26 9 14 1028.3 - 2.2
22/01:46am 14.2 12.3 13.1 93 0.6 W 15 20 8 11 1028.5 - 2.0
22/01:42am 14.3 12.5 13.2 93 0.6 W 15 22 8 12 1028.5 - 2.0
22/01:31am 14.3 12.5 13.2 93 0.6 W 15 19 8 10 1028.7 - 2.0
22/01:30am 14.2 12.4 13.3 94 0.5 W 15 19 8 10 1028.7 - 2.0
22/01:00am 14.4 13.4 13.5 94 0.5 W 11 17 6 9 1029.1 - 1.8
22/12:38am 14.5 13.2 13.6 94 0.5 W 13 17 7 9 1029.4 - 1.4
22/12:30am 14.6 13.3 13.7 94 0.5 WSW 13 19 7 10 1029.5 - 1.0
22/12:17am 14.7 13.9 14.0 96 0.4 W 11 15 6 8 1029.6 - 1.0
22/12:00am 14.8 13.1 13.7 93 0.6 WSW 15 22 8 12 1029.8 1029.9 1.0
 
Date/Time
EDT
Temp
°C
App
Temp
°C
Dew
Point
Rel
Hum
%
Delta-T
°C
Wind Press
QNH
hPa
Press
MSL
hPa
Rain
since 9 am
mm
Dir
 
Spd
km/h
Gust
km/h
Spd
kts
Gust
kts
21/11:56pm 14.8 12.8 13.9 94 0.5 WSW 17 22 9 12 1029.8 - 0.8
21/11:30pm 15.3 14.2 14.4 94 0.5 W 13 17 7 9 1029.9 - 0.6
21/11:15pm 15.4 15.1 14.3 93 0.6 NW 9 11 5 6 1029.9 - 0.6
21/11:00pm 15.5 15.6 14.4 93 0.6 E 7 11 4 6 1030.1 - 0.6
21/10:38pm 15.0 14.4 13.4 90 0.9 SW 9 13 5 7 1030.3 - 0.2
21/10:36pm 15.0 14.0 13.4 90 0.9 SW 11 15 6 8 1030.3 - 0.2
21/10:30pm 15.0 13.6 13.4 90 0.9 SW 13 19 7 10 1030.3 - 0.2
21/10:03pm 15.8 11.8 14.0 89 1.0 SSE 28 35 15 19 1030.4 - 0.0
21/10:00pm 15.9 11.4 13.8 87 1.2 SSE 30 35 16 19 1030.4 - 0.0
21/09:30pm 17.8 12.9 9.8 59 4.2 S 26 33 14 18 1029.9 - 0.0
21/09:00pm 17.8 14.3 12.1 69 3.1 S 22 30 12 16 1029.8 1029.9 0.0
21/08:30pm 17.9 13.7 12.3 70 3.1 S 26 33 14 18 1029.7 - 0.0
21/08:00pm 18.2 14.2 13.0 71 2.9 SSE 26 35 14 19 1029.3 - 0.0
21/07:30pm 18.4 13.7 10.5 60 4.2 S 26 35 14 19 1029.0 - 0.0
21/07:00pm 18.3 13.6 10.8 61 4.0 S 26 35 14 19 1028.9 - 0.0
21/06:30pm 18.6 13.2 10.8 60 4.2 S 30 39 16 21 1028.7 - 0.0
21/06:00pm 18.6 13.3 11.4 63 3.9 S 30 37 16 20 1028.5 1028.6 0.0
21/05:30pm 19.7 14.5 10.4 55 5.0 S 28 37 15 20 1028.3 - 0.0
21/05:00pm 20.0 14.8 10.3 53 5.2 S 28 37 15 20 1028.3 - 0.0
21/04:30pm 19.9 14.2 9.9 52 5.4 S 30 37 16 20 1028.2 - 0.0
21/04:00pm 20.3 14.7 10.0 51 5.5 S 30 39 16 21 1028.3 - 0.0
21/03:30pm 19.9 14.0 11.1 57 4.8 S 33 41 18 22 1028.5 - 0.0
21/03:00pm 20.7 14.6 8.4 45 6.4 S 30 39 16 21 1028.8 1028.9 0.0
21/02:30pm 21.7 16.2 9.3 45 6.6 S 28 35 15 19 1029.1 - 0.0
21/02:00pm 21.2 15.2 8.6 44 6.6 S 30 39 16 21 1029.4 - 0.0
21/01:30pm 21.2 15.1 8.3 43 6.8 S 30 37 16 20 1029.9 - 0.0
21/01:00pm 21.3 15.2 8.2 43 6.8 S 30 35 16 19 1029.9 - 0.0
21/12:30pm 20.6 14.7 9.2 48 6.0 S 30 37 16 20 1030.2 - 0.0
21/12:00pm 20.7 15.2 9.3 48 6.1 S 28 37 15 20 1030.5 - 0.0
21/11:30am 20.5 14.5 10.0 51 5.6 S 32 41 17 22 1030.4 - 0.0
21/11:00am 19.0 12.9 9.9 55 4.8 S 32 39 17 21 1030.6 - 0.0
21/10:30am 19.9 14.6 9.7 51 5.4 SW 28 39 15 21 1030.5 - 0.0
21/10:00am 19.6 14.3 9.8 53 5.2 SW 28 35 15 19 1030.4 - 0.0
21/09:30am 18.9 13.6 9.8 55 4.8 SW 28 37 15 20 1030.4 - 0.0
21/09:00am 18.6 14.7 10.8 60 4.2 SW 22 32 12 17 1030.2 1030.3 0.0
21/08:30am 17.6 13.3 10.9 65 3.6 SW 24 32 13 17 1029.9 - 0.0
21/08:00am 17.0 13.2 11.2 68 3.1 SW 22 30 12 16 1029.7 - 0.0
21/07:30am 16.7 13.5 11.9 73 2.6 SW 20 28 11 15 1029.4 - 0.0
21/07:00am 16.6 13.0 12.0 74 2.5 SW 22 30 12 16 1029.1 - 0.0
21/06:30am 16.5 12.7 12.5 77 2.2 SSW 24 35 13 19 1028.7 - 0.0
21/06:00am 16.5 13.5 12.7 78 2.1 SW 20 24 11 13 1028.3 1028.4 0.0
21/05:30am 16.6 14.2 12.8 78 2.1 SW 17 24 9 13 1028.2 - 0.0
21/05:00am 16.6 13.4 13.2 80 1.9 SW 22 32 12 17 1027.9 - 0.0
21/04:30am 16.7 14.5 13.3 80 1.9 SW 17 24 9 13 1027.9 - 0.0
21/04:00am 16.7 14.2 13.5 81 1.8 WSW 19 24 10 13 1027.9 - 0.0
21/03:30am 16.6 14.2 13.7 83 1.6 SW 19 24 10 13 1028.0 - 0.0
21/03:00am 16.4 14.5 14.3 87 1.2 SW 17 30 9 16 1028.1 1028.2 0.0
21/02:54am 16.4 15.0 14.5 88 1.1 SW 15 22 8 12 1028.1 - 0.0
21/02:34am 16.8 14.4 14.3 85 1.4 SW 20 26 11 14 1028.2 - 0.0
21/02:30am 17.0 14.5 14.2 83 1.6 SW 20 26 11 14 1028.3 - 0.0
21/02:00am 17.4 15.0 13.9 80 2.0 SW 19 26 10 14 1028.3 - 0.0
21/01:30am 17.3 14.9 14.3 82 1.7 SW 20 28 11 15 1028.5 - 0.0
21/01:00am 17.4 15.0 14.4 82 1.7 SW 20 28 11 15 1028.6 - 0.0
21/12:30am 17.4 14.3 14.4 82 1.7 SW 24 32 13 17 1028.8 - 0.0
21/12:00am 17.3 13.8 14.5 83 1.6 SW 26 33 14 18 1028.8 1028.9 0.0
 
Date/Time
EDT
Temp
°C
App
Temp
°C
Dew
Point
Rel
Hum
%
Delta-T
°C
Wind Press
QNH
hPa
Press
MSL
hPa
Rain
since 9 am
mm
Dir
 
Spd
km/h
Gust
km/h
Spd
kts
Gust
kts
20/11:30pm 17.5 14.8 14.5 82 1.7 WSW 22 30 12 16 1029.1 - 0.0
20/11:00pm 17.7 13.8 14.4 81 1.9 SW 28 35 15 19 1029.2 - 0.0
20/10:30pm 17.8 15.1 14.5 81 1.9 WSW 22 32 12 17 1029.2 - 0.0
20/10:00pm 17.7 15.2 15.1 85 1.5 WSW 22 30 12 16 1029.1 - 0.0
20/09:30pm 18.1 15.0 14.4 79 2.1 SSW 24 33 13 18 1029.2 - 0.0
20/09:00pm 18.6 13.8 15.5 82 1.8 S 35 48 19 26 1028.7 1028.8 0.0
20/08:30pm 19.7 15.0 14.3 71 3.1 SSW 32 41 17 22 1028.3 - 0.0
20/08:00pm 19.8 14.8 14.0 69 3.3 SSW 33 44 18 24 1028.0 - 0.0
20/07:30pm 19.8 15.0 14.0 69 3.3 SSW 32 46 17 25 1027.6 - 0.0
20/07:00pm 19.8 14.4 14.0 69 3.3 S 35 46 19 25 1027.3 - 0.0
20/06:30pm 20.1 13.8 13.6 66 3.7 S 39 54 21 29 1027.0 - 0.0
20/06:00pm 20.1 14.3 14.0 68 3.5 S 37 50 20 27 1026.6 1026.7 0.0
20/05:30pm 21.0 14.9 14.1 64 4.0 S 39 52 21 28 1026.2 - 0.0
20/05:00pm 21.2 14.9 14.7 66 3.8 S 41 54 22 29 1025.9 - 0.0
20/04:30pm 21.7 14.8 14.5 63 4.2 S 44 65 24 35 1025.5 - 0.0
20/04:00pm 21.9 14.7 14.7 63 4.2 S 46 65 25 35 1025.1 - 0.0
20/03:30pm 22.2 15.3 15.7 66 3.9 S 46 63 25 34 1025.1 - 0.0
20/03:08pm 22.6 16.5 16.1 66 3.9 S 43 61 23 33 1025.1 - 0.0
20/03:00pm 22.8 16.6 16.4 67 3.9 S 44 57 24 31 1025.1 1025.2 0.0
20/02:28pm 23.4 19.9 16.5 65 4.2 S 30 48 16 26 1025.3 - 0.0
20/02:00pm 23.5 18.7 14.1 55 5.5 S 32 41 17 22 1025.5 - 0.0
20/01:53pm 23.5 18.5 13.3 52 5.9 S 32 41 17 22 1025.6 - 0.0
20/01:30pm 23.1 20.4 13.0 53 5.8 S 19 22 10 12 1025.3 - 0.0
20/01:00pm 23.5 21.4 13.7 54 5.7 E 17 20 9 11 1024.8 - 0.0
20/12:30pm 22.8 21.2 13.8 57 5.2 NE 15 19 8 10 1024.2 - 0.0
20/12:00pm 22.9 20.9 14.0 57 5.2 ENE 17 24 9 13 1024.4 1024.5 0.0
20/11:30am 22.5 20.0 13.5 56 5.2 ENE 19 26 10 14 1024.4 - 0.0
20/11:00am 22.8 21.0 13.4 55 5.4 ENE 15 20 8 11 1024.3 - 0.0
20/10:30am 22.7 20.8 12.9 54 5.6 ENE 15 19 8 10 1024.4 - 0.0
20/10:00am 22.7 21.5 12.7 53 5.7 SE 11 13 6 7 1024.3 - 0.0
20/09:30am 21.6 20.0 12.8 57 5.0 SE 13 15 7 8 1024.1 - 0.0
20/09:00am 21.9 20.8 11.9 53 5.6 NW 9 15 5 8 1024.1 1024.2 0.0
20/08:30am 21.0 18.8 12.2 57 4.9 NW 15 20 8 11 1024.1 - 0.0
20/08:00am 19.9 17.4 12.2 61 4.3 NW 17 22 9 12 1023.9 - 0.0
20/07:30am 18.4 16.9 11.8 65 3.6 NW 11 15 6 8 1023.9 - 0.0
20/07:00am 16.3 14.2 12.3 77 2.2 NW 15 20 8 11 1023.8 - 0.0
20/06:30am 13.7 12.1 11.4 86 1.2 WNW 11 17 6 9 1023.6 - 0.0
20/06:00am 13.1 12.1 11.0 87 1.1 NNW 7 11 4 6 1023.3 1023.4 0.0
20/05:30am 12.8 11.5 11.3 91 0.8 NW 9 13 5 7 1023.3 - 0.0
20/05:00am 12.8 12.8 11.1 89 0.9 N 2 6 1 3 1023.1 - 0.0
20/04:30am 13.1 11.4 11.2 88 1.0 N 11 17 6 9 1023.3 - 0.0
20/04:00am 13.6 11.9 11.1 85 1.3 NNW 11 15 6 8 1023.4 - 0.0
20/03:30am 14.2 12.1 11.0 81 1.7 N 13 17 7 9 1023.8 - 0.0
20/03:00am 13.5 11.9 11.6 88 1.0 N 11 13 6 7 1024.0 1024.1 0.0
20/02:30am 13.5 12.6 11.2 86 1.2 NNW 7 11 4 6 1024.5 - 0.0
20/02:00am 13.7 12.1 11.6 87 1.1 NNW 11 13 6 7 1024.9 - 0.0
20/01:30am 14.0 12.4 11.6 85 1.3 NNW 11 13 6 7 1025.2 - 0.0
20/01:00am 13.8 12.1 11.3 85 1.3 NW 11 13 6 7 1025.6 - 0.0
20/12:30am 13.9 13.0 11.2 84 1.4 NW 7 9 4 5 1026.2 - 0.0
20/12:00am 14.3 13.0 11.3 82 1.6 NNW 9 11 5 6 1026.5 1026.6 0.0
 
Date/Time
EDT
Temp
°C
App
Temp
°C
Dew
Point
Rel
Hum
%
Delta-T
°C
Wind Press
QNH
hPa
Press
MSL
hPa
Rain
since 9 am
mm
Dir
 
Spd
km/h
Gust
km/h
Spd
kts
Gust
kts
19/11:30pm 14.6 13.3 11.2 80 1.8 NNW 9 13 5 7 1026.7 - 0.0
19/11:00pm 15.0 13.6 11.0 77 2.1 NNW 9 11 5 6 1026.7 - 0.0
19/10:30pm 15.3 13.2 11.2 76 2.2 NW 13 17 7 9 1026.8 - 0.0
19/10:00pm 15.5 13.9 11.4 76 2.2 NNW 11 17 6 9 1026.7 - 0.0
19/09:30pm 16.0 14.3 11.3 73 2.5 NNW 11 11 6 6 1026.5 - 0.0
19/09:00pm 16.1 14.6 11.8 75 2.3 NNW 11 13 6 7 1026.2 1026.3 0.0
19/08:30pm 16.9 15.6 11.3 69 3.0 N 9 11 5 6 1026.0 - 0.0
19/08:00pm 17.7 16.0 11.2 65 3.5 N 11 15 6 8 1025.8 - 0.0
19/07:30pm 18.6 16.5 11.0 61 4.1 NNE 13 17 7 9 1025.5 - 0.0
19/07:00pm 18.9 16.0 10.9 59 4.3 NNE 17 22 9 12 1025.1 - 0.0
19/06:30pm 19.5 16.5 10.6 56 4.8 NNE 17 20 9 11 1024.8 - 0.0
19/06:00pm 20.1 16.6 10.2 53 5.3 NNE 19 28 10 15 1024.6 1024.7 0.0
19/05:30pm 20.7 17.2 10.3 51 5.6 NE 19 26 10 14 1024.5 - 0.0
19/05:00pm 21.4 17.8 10.5 49 5.9 NE 20 32 11 17 1024.4 - 0.0
19/04:30pm 20.8 17.1 10.0 50 5.8 NE 20 28 11 15 1024.5 - 0.0
19/04:00pm 21.5 17.8 10.2 48 6.1 ENE 20 28 11 15 1024.5 - 0.0
19/03:30pm 21.4 18.3 12.3 56 5.1 NE 20 28 11 15 1024.8 - 0.0
19/03:00pm 21.6 18.5 12.3 55 5.2 NE 20 28 11 15 1025.3 1025.4 0.0
19/02:30pm 21.4 18.3 12.3 56 5.1 NE 20 28 11 15 1025.6 - 0.0
19/02:00pm 21.8 18.6 13.0 57 5.0 NE 22 32 12 17 1025.8 - 0.0
19/01:30pm 21.5 18.5 12.4 56 5.1 E 20 28 11 15 1026.3 - 0.0
19/01:00pm 21.9 18.5 12.5 55 5.3 E 22 28 12 15 1026.8 - 0.0
19/12:30pm 21.3 18.2 11.7 54 5.4 E 19 26 10 14 1027.2 - 0.0
19/12:00pm 21.4 18.7 11.7 54 5.4 E 17 22 9 12 1027.4 1027.5 0.0
19/11:30am 21.4 18.4 10.5 49 5.9 ESE 17 20 9 11 1027.8 - 0.0
19/11:00am 22.1 19.5 10.8 48 6.2 ESE 15 19 8 10 1028.0 - 0.0
19/10:30am 21.8 19.4 9.9 46 6.4 SE 13 17 7 9 1028.4 - 0.0
19/10:00am 21.5 19.1 10.0 48 6.2 ESE 13 17 7 9 1028.5 - 0.0
19/09:30am 20.3 18.5 10.7 54 5.2 SSE 11 17 6 9 1028.6 - 0.0
19/09:00am 20.0 19.6 11.0 56 4.9 WSW 4 9 2 5 1028.6 1028.7 0.6
19/08:30am 19.5 18.3 11.7 60 4.3 WSW 9 13 5 7 1028.4 - 0.6
19/08:00am 17.9 17.1 11.6 66 3.4 W 7 9 4 5 1028.4 - 0.6
19/07:30am 16.1 15.3 12.8 81 1.8 W 9 9 5 5 1028.2 - 0.6
19/07:00am 13.5 12.9 12.4 93 0.6 W 7 7 4 4 1027.8 - 0.6

Other Formats:

Comma delimited format used in spreadsheet applications
http://www.bom.gov.au/fwo/IDN60801/IDN60801.94791.axf

JavaScript Object Notation format (JSON) in row-major order
http://www.bom.gov.au/fwo/IDN60801/IDN60801.94791.json